createdAt,value
2018-09-28T00:01:16.051Z,12.61
2018-09-28T00:03:47.007Z,12.60
2018-09-28T00:06:17.057Z,12.63
2018-09-28T00:08:48.169Z,12.65
2018-09-28T00:11:18.148Z,12.55
2018-09-28T00:13:48.070Z,12.59
2018-09-28T00:16:19.039Z,12.46
2018-09-28T00:18:51.119Z,12.46
2018-09-28T00:21:20.005Z,12.42
2018-09-28T00:23:48.899Z,12.35
2018-09-28T00:26:17.810Z,12.36
2018-09-28T00:28:50.493Z,12.43
2018-09-28T00:31:19.473Z,12.50
2018-09-28T00:33:48.403Z,12.34
2018-09-28T00:36:17.319Z,12.36
2018-09-28T00:38:46.393Z,12.38
2018-09-28T00:41:15.437Z,12.39
2018-09-28T00:43:45.421Z,12.44
2018-09-28T00:46:14.349Z,12.56
2018-09-28T00:48:47.316Z,12.52
2018-09-28T00:51:24.001Z,12.53
2018-09-28T00:57:11.098Z,12.35
2018-09-28T00:59:42.091Z,12.38
2018-09-28T01:02:17.513Z,12.43
2018-09-28T01:04:46.600Z,12.38
2018-09-28T01:07:15.506Z,12.38
2018-09-28T01:09:44.416Z,12.34
2018-09-28T01:12:16.741Z,12.18
2018-09-28T01:14:45.737Z,12.06
2018-09-28T01:17:18.381Z,12.23
2018-09-28T01:19:47.328Z,12.23
2018-09-28T01:22:34.295Z,12.29
2018-09-28T01:25:03.243Z,12.39
2018-09-28T01:27:32.288Z,12.37
2018-09-28T01:30:01.177Z,12.30
2018-09-28T01:32:30.105Z,12.31
2018-09-28T01:35:00.087Z,12.22
2018-09-28T01:37:29.027Z,12.24
2018-09-28T01:39:57.924Z,12.21
2018-09-28T01:42:30.130Z,12.13
2018-09-28T01:44:59.144Z,12.10
2018-09-28T01:47:28.151Z,12.13
2018-09-28T01:49:57.050Z,12.24
2018-09-28T01:52:25.987Z,12.13
2018-09-28T01:54:54.894Z,12.11
2018-09-28T01:57:23.788Z,12.19
2018-09-28T01:59:57.424Z,12.16
2018-09-28T02:02:32.671Z,12.10
2018-09-28T02:05:01.598Z,12.16
2018-09-28T02:07:30.510Z,12.04
2018-09-28T02:09:59.598Z,12.12
2018-09-28T02:12:29.644Z,12.19
2018-09-28T02:14:59.503Z,12.23
2018-09-28T02:17:41.440Z,12.11
2018-09-28T02:20:21.083Z,12.05
2018-09-28T02:22:50.007Z,12.03
2018-09-28T02:25:18.898Z,11.92
2018-09-28T02:27:47.855Z,11.97
2018-09-28T02:30:16.761Z,11.99
2018-09-28T02:32:45.669Z,11.94
2018-09-28T02:35:14.545Z,11.85
2018-09-28T02:37:54.413Z,11.97
2018-09-28T02:40:24.341Z,11.92
2018-09-28T02:42:55.288Z,11.88
2018-09-28T02:45:24.366Z,11.76
2018-09-28T02:47:53.812Z,11.70
2018-09-28T02:50:23.186Z,11.70
2018-09-28T02:53:02.330Z,11.75
2018-09-28T02:55:41.380Z,11.76
2018-09-28T02:58:18.498Z,11.71
2018-09-28T03:00:48.538Z,11.80
2018-09-28T03:03:17.635Z,11.81
2018-09-28T03:05:46.569Z,11.64
2018-09-28T03:08:15.526Z,11.67
2018-09-28T03:11:01.163Z,11.69
2018-09-28T03:13:30.075Z,11.77
2018-09-28T03:16:00.038Z,11.82
2018-09-28T03:18:28.961Z,11.84
2018-09-28T03:20:58.921Z,11.83
2018-09-28T03:23:34.825Z,11.75
2018-09-28T03:26:03.945Z,11.81
2018-09-28T03:28:33.037Z,11.77
2018-09-28T03:31:02.984Z,11.95
2018-09-28T03:33:31.902Z,11.96
2018-09-28T03:36:01.913Z,12.01
2018-09-28T03:38:30.953Z,12.09
2018-09-28T03:41:04.900Z,12.16
2018-09-28T03:43:33.973Z,12.08
2018-09-28T03:46:15.411Z,12.21
2018-09-28T03:48:57.612Z,12.18
2018-09-28T03:51:33.820Z,12.18
2018-09-28T03:54:04.786Z,12.39
2018-09-28T03:56:33.727Z,12.39
2018-09-28T03:59:05.981Z,12.51
2018-09-28T04:01:34.881Z,12.54
2018-09-28T04:04:03.932Z,12.59
2018-09-28T04:06:32.945Z,12.56
2018-09-28T04:09:04.812Z,12.56
2018-09-28T04:11:33.759Z,12.48
2018-09-28T04:14:02.980Z,12.60
2018-09-28T04:16:31.947Z,12.46
2018-09-28T04:19:00.952Z,12.54
2018-09-28T04:21:29.893Z,12.64
2018-09-28T04:23:59.009Z,12.64
2018-09-28T04:26:28.923Z,12.77
2018-09-28T04:28:57.936Z,12.81
2018-09-28T04:31:28.068Z,12.83
2018-09-28T04:33:56.990Z,12.90
2018-09-28T04:36:25.933Z,12.85
2018-09-28T04:38:55.880Z,12.87
2018-09-28T04:41:24.872Z,12.90
2018-09-28T04:43:53.877Z,12.93
2018-09-28T04:46:22.815Z,12.88
2018-09-28T04:48:52.784Z,12.89
2018-09-28T04:51:26.313Z,13.01
2018-09-28T04:53:58.425Z,12.92
2018-09-28T04:56:38.836Z,12.96
2018-09-28T04:59:07.733Z,13.10
2018-09-28T05:01:42.499Z,13.09
2018-09-28T05:04:23.707Z,13.07
2018-09-28T05:06:53.680Z,13.11
2018-09-28T05:09:23.630Z,13.20
2018-09-28T05:12:05.196Z,13.15
2018-09-28T05:14:34.315Z,13.23
2018-09-28T05:17:05.350Z,13.23
2018-09-28T05:19:37.851Z,13.18
2018-09-28T05:22:07.824Z,13.27
2018-09-28T05:24:42.799Z,13.23
2018-09-28T05:27:22.617Z,13.21
2018-09-28T05:29:55.153Z,13.31
2018-09-28T05:32:24.252Z,13.32
2018-09-28T05:35:00.415Z,13.34
2018-09-28T05:37:32.828Z,13.43
2018-09-28T05:40:18.675Z,13.38
2018-09-28T05:42:49.895Z,13.42
2018-09-28T05:45:22.743Z,13.49
2018-09-28T05:48:03.256Z,13.53
2018-09-28T05:50:38.111Z,13.34
2018-09-28T05:53:08.089Z,13.44
2018-09-28T05:55:48.901Z,13.53
2018-09-28T05:58:23.453Z,13.59
2018-09-28T06:01:04.068Z,13.64
2018-09-28T06:03:43.908Z,13.71
2018-09-28T06:06:13.880Z,13.62
2018-09-28T06:08:53.464Z,13.73
2018-09-28T06:11:30.070Z,13.73
2018-09-28T06:14:00.258Z,13.73
2018-09-28T06:16:29.225Z,13.73
2018-09-28T06:19:04.071Z,13.81
2018-09-28T06:21:33.025Z,13.77
2018-09-28T06:24:03.044Z,13.78
2018-09-28T06:26:32.033Z,13.72
2018-09-28T06:29:02.072Z,13.63
2018-09-28T06:31:31.137Z,13.62
2018-09-28T06:34:00.097Z,13.67
2018-09-28T06:36:36.731Z,13.70
2018-09-28T06:39:06.536Z,13.68
2018-09-28T06:41:35.581Z,13.59
2018-09-28T06:44:06.601Z,13.66
2018-09-28T06:46:35.561Z,13.76
2018-09-28T06:49:05.573Z,13.72
2018-09-28T06:51:34.611Z,13.84
2018-09-28T06:54:05.598Z,13.76
2018-09-28T06:56:34.787Z,13.86
2018-09-28T06:59:04.836Z,13.93
2018-09-28T07:01:40.086Z,13.81
2018-09-28T07:04:13.580Z,13.91
2018-09-28T07:06:43.752Z,13.95
2018-09-28T07:09:15.950Z,14.02
2018-09-28T07:11:45.228Z,13.94
2018-09-28T07:14:20.366Z,14.03
2018-09-28T07:16:49.615Z,14.00
2018-09-28T07:19:19.506Z,14.06
2018-09-28T07:21:48.489Z,14.02
2018-09-28T07:24:22.028Z,13.97
2018-09-28T07:26:50.967Z,14.01
2018-09-28T07:29:20.018Z,14.05
2018-09-28T07:31:50.152Z,14.05
2018-09-28T07:34:26.208Z,14.09
2018-09-28T07:37:11.737Z,14.18
2018-09-28T07:39:43.795Z,14.13
2018-09-28T07:42:13.904Z,14.16
2018-09-28T07:44:43.054Z,14.25
2018-09-28T07:47:11.941Z,14.24
2018-09-28T07:49:41.050Z,14.27
2018-09-28T07:52:09.977Z,14.37
2018-09-28T07:54:38.965Z,14.34
2018-09-28T07:57:07.872Z,14.38
2018-09-28T07:59:37.824Z,14.41
2018-09-28T08:02:07.143Z,14.43
2018-09-28T08:04:40.776Z,14.41
2018-09-28T08:07:17.399Z,14.36
2018-09-28T08:09:53.417Z,14.45
2018-09-28T08:12:22.456Z,14.48
2018-09-28T08:14:54.907Z,14.51
2018-09-28T08:17:25.803Z,14.48
2018-09-28T08:19:54.840Z,14.51
2018-09-28T08:22:23.987Z,14.40
2018-09-28T08:25:06.304Z,14.49
2018-09-28T08:27:45.426Z,14.49
2018-09-28T08:30:22.323Z,14.42
2018-09-28T08:32:55.608Z,14.53
2018-09-28T08:35:24.553Z,14.58
2018-09-28T08:37:57.285Z,14.61
2018-09-28T08:40:29.969Z,14.63
2018-09-28T08:43:01.054Z,14.51
2018-09-28T08:45:33.273Z,14.61
2018-09-28T08:48:06.763Z,14.65
2018-09-28T08:50:35.716Z,14.63
2018-09-28T08:53:16.228Z,14.56
2018-09-28T08:55:46.320Z,14.64
2018-09-28T08:58:16.262Z,14.66
2018-09-28T09:00:47.249Z,14.67
2018-09-28T09:03:18.380Z,14.67
2018-09-28T09:05:59.241Z,14.68
2018-09-28T09:08:30.194Z,14.59
2018-09-28T09:11:03.799Z,14.41
2018-09-28T09:13:32.742Z,14.21
2018-09-28T09:16:13.694Z,14.21
2018-09-28T09:18:42.623Z,14.28
2018-09-28T09:24:09.213Z,14.31
2018-09-28T09:26:54.969Z,14.36
2018-09-28T09:29:23.877Z,14.36
2018-09-28T09:31:57.865Z,14.44
2018-09-28T09:34:27.839Z,14.51
2018-09-28T09:36:56.914Z,14.60
2018-09-28T09:39:27.138Z,14.49
2018-09-28T09:41:56.399Z,14.58
2018-09-28T09:44:26.330Z,14.64
2018-09-28T09:46:59.538Z,14.65
2018-09-28T09:49:28.534Z,14.66
2018-09-28T09:52:02.479Z,14.75
2018-09-28T09:54:35.614Z,14.75
2018-09-28T09:57:05.617Z,14.77
2018-09-28T09:59:39.552Z,14.84
2018-09-28T10:03:17.031Z,14.86
2018-09-28T10:05:47.094Z,14.89
2018-09-28T10:08:16.135Z,15.03
2018-09-28T10:10:46.139Z,15.08
2018-09-28T10:13:16.073Z,15.17
2018-09-28T10:15:46.022Z,15.18
2018-09-28T10:18:16.961Z,15.06
2018-09-28T10:20:49.960Z,14.96
2018-09-28T10:23:18.914Z,15.05
2018-09-28T10:25:48.658Z,15.10
2018-09-28T10:28:23.502Z,14.95
2018-09-28T10:30:56.417Z,15.04
2018-09-28T10:33:25.474Z,15.02
2018-09-28T10:36:00.518Z,15.01
2018-09-28T10:38:43.877Z,15.05
2018-09-28T10:41:12.847Z,14.99
2018-09-28T10:43:42.915Z,14.94
2018-09-28T10:46:16.436Z,14.92
2018-09-28T10:48:46.434Z,14.96
2018-09-28T10:51:21.168Z,14.95
2018-09-28T10:53:53.658Z,14.78
2018-09-28T10:56:22.596Z,14.90
2018-09-28T10:58:57.453Z,14.96
2018-09-28T11:01:26.282Z,14.90
2018-09-28T11:03:55.167Z,14.82
2018-09-28T11:06:24.177Z,14.94
2018-09-28T11:08:53.219Z,14.95
2018-09-28T11:11:22.089Z,15.02
2018-09-28T11:14:13.501Z,15.08
2018-09-28T11:16:43.707Z,15.20
2018-09-28T11:19:12.733Z,15.29
2018-09-28T11:21:42.774Z,15.36
2018-09-28T11:24:11.674Z,15.27
2018-09-28T11:26:40.573Z,15.25
2018-09-28T11:29:11.692Z,15.43
2018-09-28T11:31:41.607Z,15.75
2018-09-28T11:34:11.641Z,15.57
2018-09-28T11:36:40.543Z,15.50
2018-09-28T11:39:09.515Z,15.56
2018-09-28T11:41:38.376Z,15.65
2018-09-28T11:44:07.374Z,15.69
2018-09-28T11:46:36.371Z,15.70
2018-09-28T11:49:08.409Z,15.65
2018-09-28T11:51:41.517Z,15.52
2018-09-28T11:54:14.352Z,15.52
2018-09-28T11:56:43.304Z,15.51
2018-09-28T11:59:14.527Z,15.21
2018-09-28T12:01:46.589Z,15.31
2018-09-28T12:04:19.307Z,15.43
2018-09-28T12:06:52.284Z,15.62
2018-09-28T12:09:32.490Z,15.71
2018-09-28T12:12:02.461Z,15.70
2018-09-28T12:14:37.079Z,15.89
2018-09-28T12:17:06.155Z,15.92
2018-09-28T12:19:35.095Z,15.80
2018-09-28T12:22:08.874Z,15.77
2018-09-28T12:24:55.696Z,15.71
2018-09-28T12:27:24.727Z,15.92
2018-09-28T12:29:55.809Z,15.95
2018-09-28T12:32:31.427Z,15.83
2018-09-28T12:35:01.415Z,15.85
2018-09-28T12:37:30.436Z,16.01
2018-09-28T12:40:08.913Z,15.99
2018-09-28T12:42:37.843Z,16.04
2018-09-28T12:45:10.309Z,15.98
2018-09-28T12:50:32.310Z,16.14
2018-09-28T12:53:01.244Z,16.06
2018-09-28T12:55:34.641Z,15.98
2018-09-28T12:58:03.628Z,16.27
2018-09-28T13:00:32.608Z,16.44
2018-09-28T13:03:01.460Z,16.50
2018-09-28T13:05:31.451Z,16.45
2018-09-28T13:08:03.533Z,16.54
2018-09-28T13:10:36.449Z,16.73
2018-09-28T13:13:06.386Z,16.68
2018-09-28T13:15:37.302Z,16.74
2018-09-28T13:18:12.450Z,16.68
2018-09-28T13:20:41.461Z,16.48
2018-09-28T13:23:11.462Z,16.49
2018-09-28T13:25:52.864Z,16.52
2018-09-28T13:28:21.765Z,16.87
2018-09-28T13:31:10.571Z,16.90
2018-09-28T13:33:39.491Z,16.73
2018-09-28T13:36:14.966Z,16.70
2018-09-28T13:38:49.571Z,16.59
2018-09-28T13:41:22.576Z,16.47
2018-09-28T13:43:55.333Z,16.38
2018-09-28T13:46:24.329Z,16.25
2018-09-28T13:48:54.290Z,16.24
2018-09-28T13:51:24.246Z,16.33
2018-09-28T13:53:54.353Z,16.54
2018-09-28T13:56:36.147Z,16.45
2018-09-28T13:59:08.619Z,16.66
2018-09-28T14:01:37.619Z,16.70
2018-09-28T14:04:07.176Z,16.79
2018-09-28T14:06:48.316Z,16.77
2018-09-28T14:09:20.775Z,16.89
2018-09-28T14:11:51.274Z,16.88
2018-09-28T14:14:21.334Z,16.86
2018-09-28T14:16:51.264Z,17.01
2018-09-28T14:19:23.582Z,17.06
2018-09-28T14:21:57.678Z,17.13
2018-09-28T14:24:27.420Z,16.96
2018-09-28T14:26:58.760Z,17.04
2018-09-28T14:29:27.999Z,17.09
2018-09-28T14:32:02.519Z,17.09
2018-09-28T14:34:53.070Z,17.11
2018-09-28T14:37:22.474Z,17.13
2018-09-28T14:39:55.296Z,17.06
2018-09-28T14:42:25.741Z,17.09
2018-09-28T14:44:55.678Z,17.15
2018-09-28T14:47:25.015Z,17.14
2018-09-28T14:49:54.625Z,17.08
2018-09-28T14:52:25.236Z,16.96
2018-09-28T14:54:54.282Z,17.09
2018-09-28T14:57:24.218Z,17.07
2018-09-28T14:59:58.037Z,16.94
2018-09-28T15:02:27.909Z,16.84
2018-09-28T15:05:02.125Z,16.77
2018-09-28T15:07:38.084Z,16.82
2018-09-28T15:10:10.495Z,16.77
2018-09-28T15:12:49.317Z,16.75
2018-09-28T15:15:19.831Z,16.76
2018-09-28T15:17:49.191Z,16.81
2018-09-28T15:20:24.148Z,16.84
2018-09-28T15:22:53.855Z,16.83
2018-09-28T15:25:28.406Z,16.89
2018-09-28T15:28:01.064Z,16.96
2018-09-28T15:33:41.504Z,16.81
2018-09-28T15:36:10.561Z,16.89
2018-09-28T15:38:44.565Z,17.01
2018-09-28T15:41:17.698Z,17.01
2018-09-28T15:43:46.641Z,16.71
2018-09-28T15:46:19.630Z,16.47
2018-09-28T15:48:48.746Z,16.35
2018-09-28T15:51:19.720Z,16.25
2018-09-28T15:53:48.662Z,16.17
2018-09-28T15:56:22.466Z,16.21
2018-09-28T15:58:51.446Z,16.14
2018-09-28T16:01:22.665Z,16.19
2018-09-28T16:03:51.622Z,16.11
2018-09-28T16:06:20.865Z,16.19
2018-09-28T16:09:00.110Z,16.28
2018-09-28T16:11:34.764Z,16.31
2018-09-28T16:14:05.184Z,16.28
2018-09-28T16:16:44.901Z,16.26
2018-09-28T16:19:14.316Z,16.23
2018-09-28T16:21:44.826Z,16.15
2018-09-28T16:24:14.588Z,16.27
2018-09-28T16:26:43.938Z,16.26
2018-09-28T16:29:13.257Z,16.24
2018-09-28T16:31:43.177Z,16.32
2018-09-28T16:34:13.165Z,16.23
2018-09-28T16:36:48.120Z,16.24
2018-09-28T16:39:33.653Z,16.23
2018-09-28T16:42:14.031Z,16.21
2018-09-28T16:44:43.981Z,16.21
2018-09-28T16:47:14.808Z,16.13
2018-09-28T16:49:44.903Z,16.15
2018-09-28T16:52:14.079Z,16.20
2018-09-28T16:54:54.409Z,16.25
2018-09-28T16:57:35.571Z,16.19
2018-09-28T17:00:04.835Z,16.02
2018-09-28T17:02:37.482Z,16.08
2018-09-28T17:05:06.609Z,16.03
2018-09-28T17:07:42.794Z,16.05
2018-09-28T17:10:11.997Z,16.00
2018-09-28T17:12:44.488Z,15.86
2018-09-28T17:15:13.475Z,15.79
2018-09-28T17:17:42.443Z,15.75
2018-09-28T17:20:11.480Z,15.85
2018-09-28T17:22:53.048Z,15.79
2018-09-28T17:25:25.591Z,15.61
2018-09-28T17:27:54.530Z,15.63
2018-09-28T17:30:23.500Z,15.62
2018-09-28T17:32:54.472Z,15.61
2018-09-28T17:35:24.493Z,15.64
2018-09-28T17:37:59.428Z,15.56
2018-09-28T17:40:28.887Z,15.50
2018-09-28T17:42:57.897Z,15.58
2018-09-28T17:45:38.123Z,15.54
2018-09-28T17:48:11.111Z,15.48
2018-09-28T17:50:43.859Z,15.49
2018-09-28T17:53:20.369Z,15.35
2018-09-28T17:55:55.363Z,15.42
2018-09-28T17:58:37.852Z,15.23
2018-09-28T18:01:16.599Z,15.19
2018-09-28T18:03:49.236Z,15.18
2018-09-28T18:06:23.201Z,15.18
2018-09-28T18:09:06.801Z,15.12
2018-09-28T18:11:38.262Z,15.04
2018-09-28T18:14:11.847Z,15.05
2018-09-28T18:16:42.194Z,14.94
2018-09-28T18:19:35.540Z,15.00
2018-09-28T18:22:07.347Z,14.91
2018-09-28T18:24:48.391Z,14.95
2018-09-28T18:27:27.100Z,14.92
2018-09-28T18:29:57.479Z,14.86
2018-09-28T18:32:30.176Z,14.86
2018-09-28T18:35:05.642Z,14.85
2018-09-28T18:37:39.168Z,14.85
2018-09-28T18:40:18.445Z,14.76
2018-09-28T18:42:49.112Z,14.70
2018-09-28T18:45:18.640Z,14.69
2018-09-28T18:47:52.466Z,14.66
2018-09-28T18:50:22.986Z,14.61
2018-09-28T18:52:52.397Z,14.57
2018-09-28T18:55:23.438Z,14.61
2018-09-28T18:57:52.839Z,14.62
2018-09-28T19:00:26.132Z,14.45
2018-09-28T19:02:57.541Z,14.36
2018-09-28T19:08:24.580Z,14.39
2018-09-28T19:11:18.726Z,14.34
2018-09-28T19:13:53.199Z,14.33
2018-09-28T19:16:22.694Z,14.28
2018-09-28T19:18:53.301Z,14.37
2018-09-28T19:21:22.789Z,14.18
2018-09-28T19:23:52.208Z,14.15
2018-09-28T19:26:26.091Z,14.21
2018-09-28T19:28:55.229Z,14.18
2018-09-28T19:31:26.186Z,14.19
2018-09-28T19:34:00.819Z,14.08
2018-09-28T19:36:34.953Z,14.03
2018-09-28T19:39:09.490Z,14.01
2018-09-28T19:41:39.157Z,14.00
2018-09-28T19:44:13.948Z,14.01
2018-09-28T19:46:47.070Z,14.07
2018-09-28T19:49:18.581Z,13.97
2018-09-28T19:51:53.844Z,13.99
2018-09-28T19:54:23.423Z,13.89
2018-09-28T19:56:53.487Z,13.75
2018-09-28T19:59:26.509Z,13.75
2018-09-28T20:02:07.094Z,13.65
2018-09-28T20:04:38.347Z,13.67
2018-09-28T20:07:08.763Z,13.66
2018-09-28T20:09:38.793Z,13.54
2018-09-28T20:12:09.784Z,13.46
2018-09-28T20:14:51.521Z,13.38
2018-09-28T20:17:26.513Z,13.28
2018-09-28T20:19:57.621Z,13.23
2018-09-28T20:22:29.612Z,13.19
2018-09-28T20:24:59.509Z,13.20
2018-09-28T20:27:40.577Z,13.14
2018-09-28T20:30:26.465Z,13.01
2018-09-28T20:33:06.289Z,13.01
2018-09-28T20:35:35.316Z,13.04
2018-09-28T20:38:04.274Z,12.95
2018-09-28T20:40:33.235Z,12.97
2018-09-28T20:43:18.649Z,12.88
2018-09-28T20:45:47.745Z,12.79
2018-09-28T20:48:19.787Z,12.72
2018-09-28T20:50:50.165Z,12.75
2018-09-28T20:53:29.304Z,12.86
2018-09-28T20:55:59.274Z,12.87
2018-09-28T20:58:29.250Z,12.81
2018-09-28T21:00:58.268Z,12.76
2018-09-28T21:03:45.744Z,12.87
2018-09-28T21:06:32.261Z,12.57
2018-09-28T21:09:12.167Z,12.65
2018-09-28T21:11:51.892Z,12.85
2018-09-28T21:14:21.912Z,12.81
2018-09-28T21:16:52.032Z,12.82
2018-09-28T21:19:27.804Z,12.76
2018-09-28T21:22:03.630Z,12.78
2018-09-28T21:24:32.703Z,12.77
2018-09-28T21:27:05.889Z,12.69
2018-09-28T21:29:53.170Z,12.65
2018-09-28T21:32:26.816Z,12.68
2018-09-28T21:35:02.883Z,12.61
2018-09-28T21:37:35.914Z,12.57
2018-09-28T21:40:17.957Z,12.54
2018-09-28T21:42:51.324Z,12.35
2018-09-28T21:45:27.560Z,12.41
2018-09-28T21:48:08.823Z,12.38
2018-09-28T21:50:39.912Z,12.40
2018-09-28T21:53:13.615Z,12.37
2018-09-28T21:55:42.535Z,12.34
2018-09-28T21:58:12.463Z,12.30
2018-09-28T22:03:36.447Z,12.23
2018-09-28T22:06:06.383Z,12.18
2018-09-28T22:08:40.172Z,12.09
2018-09-28T22:11:11.118Z,12.06
2018-09-28T22:13:47.594Z,12.05
2018-09-28T22:16:33.267Z,12.09
2018-09-28T22:19:08.226Z,12.06
2018-09-28T22:21:44.669Z,11.99
2018-09-28T22:24:32.276Z,11.94
2018-09-28T22:27:01.252Z,11.82
2018-09-28T22:29:36.237Z,11.77
2018-09-28T22:32:07.304Z,11.74
2018-09-28T22:34:37.372Z,11.73
2018-09-28T22:37:06.468Z,11.71
2018-09-28T22:39:35.734Z,11.65
2018-09-28T22:42:14.710Z,11.59
2018-09-28T22:44:45.617Z,11.54
2018-09-28T22:47:14.728Z,11.44
2018-09-28T22:49:48.139Z,11.48
2018-09-28T22:52:23.013Z,11.50
2018-09-28T22:54:55.844Z,11.51
2018-09-28T22:57:26.830Z,11.49
2018-09-28T22:59:55.768Z,11.50
2018-09-28T23:02:26.752Z,11.43
2018-09-28T23:04:57.740Z,11.47
2018-09-28T23:07:27.802Z,11.42
2018-09-28T23:09:58.233Z,11.32
2018-09-28T23:12:27.876Z,11.27
2018-09-28T23:15:09.694Z,11.37
2018-09-28T23:17:45.494Z,11.32
2018-09-28T23:20:31.141Z,11.26
2018-09-28T23:23:09.612Z,11.31
2018-09-28T23:28:31.959Z,11.01
2018-09-28T23:31:07.162Z,11.04
2018-09-28T23:33:41.807Z,11.11
2018-09-28T23:36:14.593Z,11.14
2018-09-28T23:38:45.541Z,11.10
2018-09-28T23:41:14.534Z,11.15
2018-09-28T23:43:46.679Z,11.13
2018-09-28T23:46:20.365Z,11.08
2018-09-28T23:48:53.341Z,11.00
2018-09-28T23:51:26.406Z,10.93
2018-09-28T23:53:55.385Z,10.92
2018-09-28T23:56:27.434Z,10.84
2018-09-28T23:59:01.745Z,10.80
